sensor_id;sensor_type;location;lat;lon;timestamp;temperature;humidity
9971;DHT22;5026;51.494;11.974;2023-07-09T00:00:42;21.60;62.10
9971;DHT22;5026;51.494;11.974;2023-07-09T00:03:12;21.60;62.10
9971;DHT22;5026;51.494;11.974;2023-07-09T00:05:39;21.50;62.20
9971;DHT22;5026;51.494;11.974;2023-07-09T00:08:24;21.50;62.30
9971;DHT22;5026;51.494;11.974;2023-07-09T00:10:52;21.50;62.60
9971;DHT22;5026;51.494;11.974;2023-07-09T00:13:18;21.40;62.80
9971;DHT22;5026;51.494;11.974;2023-07-09T00:15:45;21.30;63.00
9971;DHT22;5026;51.494;11.974;2023-07-09T00:18:12;21.20;63.10
9971;DHT22;5026;51.494;11.974;2023-07-09T00:20:39;21.20;63.30
9971;DHT22;5026;51.494;11.974;2023-07-09T00:23:07;21.20;63.50
9971;DHT22;5026;51.494;11.974;2023-07-09T00:25:36;21.10;63.70
9971;DHT22;5026;51.494;11.974;2023-07-09T00:30:30;21.00;64.20
9971;DHT22;5026;51.494;11.974;2023-07-09T00:35:24;20.90;64.60
9971;DHT22;5026;51.494;11.974;2023-07-09T00:40:20;20.70;65.10
9971;DHT22;5026;51.494;11.974;2023-07-09T00:42:52;20.60;65.10
9971;DHT22;5026;51.494;11.974;2023-07-09T00:45:22;20.70;65.20
9971;DHT22;5026;51.494;11.974;2023-07-09T00:47:55;20.80;65.40
9971;DHT22;5026;51.494;11.974;2023-07-09T00:50:35;20.70;65.20
9971;DHT22;5026;51.494;11.974;2023-07-09T00:53:13;20.70;65.20
9971;DHT22;5026;51.494;11.974;2023-07-09T00:55:45;20.70;65.40
9971;DHT22;5026;51.494;11.974;2023-07-09T00:58:16;20.60;65.80
9971;DHT22;5026;51.494;11.974;2023-07-09T01:00:46;20.50;65.90
9971;DHT22;5026;51.494;11.974;2023-07-09T01:03:23;20.50;66.00
9971;DHT22;5026;51.494;11.974;2023-07-09T01:05:53;20.50;66.30
9971;DHT22;5026;51.494;11.974;2023-07-09T01:08:21;20.40;66.60
9971;DHT22;5026;51.494;11.974;2023-07-09T01:10:48;20.40;66.80
9971;DHT22;5026;51.494;11.974;2023-07-09T01:13:16;20.30;66.90
9971;DHT22;5026;51.494;11.974;2023-07-09T01:15:45;20.30;67.20
9971;DHT22;5026;51.494;11.974;2023-07-09T01:18:13;20.20;67.30
9971;DHT22;5026;51.494;11.974;2023-07-09T01:20:40;20.30;67.60
9971;DHT22;5026;51.494;11.974;2023-07-09T01:23:09;20.20;67.80
9971;DHT22;5026;51.494;11.974;2023-07-09T01:25:41;20.10;68.10
9971;DHT22;5026;51.494;11.974;2023-07-09T01:28:09;20.10;68.30
9971;DHT22;5026;51.494;11.974;2023-07-09T01:30:38;20.10;68.50
9971;DHT22;5026;51.494;11.974;2023-07-09T01:33:06;20.10;68.60
9971;DHT22;5026;51.494;11.974;2023-07-09T01:35:37;20.00;68.90
9971;DHT22;5026;51.494;11.974;2023-07-09T01:38:06;19.90;69.00
9971;DHT22;5026;51.494;11.974;2023-07-09T01:40:36;19.90;69.30
9971;DHT22;5026;51.494;11.974;2023-07-09T01:43:04;19.80;69.40
9971;DHT22;5026;51.494;11.974;2023-07-09T01:45:33;19.80;69.80
9971;DHT22;5026;51.494;11.974;2023-07-09T01:48:01;19.80;70.10
9971;DHT22;5026;51.494;11.974;2023-07-09T01:50:29;19.80;70.30
9971;DHT22;5026;51.494;11.974;2023-07-09T01:52:56;19.30;70.50
9971;DHT22;5026;51.494;11.974;2023-07-09T01:57:52;19.60;72.90
9971;DHT22;5026;51.494;11.974;2023-07-09T02:00:19;19.50;73.80
9971;DHT22;5026;51.494;11.974;2023-07-09T02:02:47;19.40;74.30
9971;DHT22;5026;51.494;11.974;2023-07-09T02:05:15;19.40;74.90
9971;DHT22;5026;51.494;11.974;2023-07-09T02:10:11;19.40;76.60
9971;DHT22;5026;51.494;11.974;2023-07-09T02:15:08;19.20;77.80
9971;DHT22;5026;51.494;11.974;2023-07-09T02:17:35;19.10;78.60
9971;DHT22;5026;51.494;11.974;2023-07-09T02:20:03;19.10;79.10
9971;DHT22;5026;51.494;11.974;2023-07-09T02:22:32;19.10;79.00
9971;DHT22;5026;51.494;11.974;2023-07-09T02:24:59;19.00;78.90
9971;DHT22;5026;51.494;11.974;2023-07-09T02:27:27;19.10;78.60
9971;DHT22;5026;51.494;11.974;2023-07-09T02:29:54;19.20;78.10
9971;DHT22;5026;51.494;11.974;2023-07-09T02:32:24;19.40;77.80
9971;DHT22;5026;51.494;11.974;2023-07-09T02:34:52;19.40;77.40
9971;DHT22;5026;51.494;11.974;2023-07-09T02:37:21;19.50;77.30
9971;DHT22;5026;51.494;11.974;2023-07-09T02:39:49;19.40;77.30
9971;DHT22;5026;51.494;11.974;2023-07-09T02:42:18;19.40;77.60
9971;DHT22;5026;51.494;11.974;2023-07-09T02:44:46;19.30;77.70
9971;DHT22;5026;51.494;11.974;2023-07-09T02:47:13;19.30;78.00
9971;DHT22;5026;51.494;11.974;2023-07-09T02:49:42;19.30;78.10
9971;DHT22;5026;51.494;11.974;2023-07-09T02:54:36;19.20;78.60
9971;DHT22;5026;51.494;11.974;2023-07-09T02:57:04;19.10;78.70
9971;DHT22;5026;51.494;11.974;2023-07-09T02:59:31;19.10;79.00
9971;DHT22;5026;51.494;11.974;2023-07-09T03:01:59;19.00;79.50
9971;DHT22;5026;51.494;11.974;2023-07-09T03:04:26;18.90;79.60
9971;DHT22;5026;51.494;11.974;2023-07-09T03:06:54;18.90;80.00
9971;DHT22;5026;51.494;11.974;2023-07-09T03:09:21;18.90;80.00
9971;DHT22;5026;51.494;11.974;2023-07-09T03:11:48;18.80;80.30
9971;DHT22;5026;51.494;11.974;2023-07-09T03:14:15;18.80;80.50
9971;DHT22;5026;51.494;11.974;2023-07-09T03:16:42;18.80;80.80
9971;DHT22;5026;51.494;11.974;2023-07-09T03:19:10;18.80;80.90
9971;DHT22;5026;51.494;11.974;2023-07-09T03:21:37;18.80;80.80
9971;DHT22;5026;51.494;11.974;2023-07-09T03:24:06;18.80;80.90
9971;DHT22;5026;51.494;11.974;2023-07-09T03:26:34;18.80;81.00
9971;DHT22;5026;51.494;11.974;2023-07-09T03:29:01;18.80;81.00
9971;DHT22;5026;51.494;11.974;2023-07-09T03:36:22;18.80;81.00
9971;DHT22;5026;51.494;11.974;2023-07-09T03:38:49;18.80;81.00
9971;DHT22;5026;51.494;11.974;2023-07-09T03:41:17;18.90;81.20
9971;DHT22;5026;51.494;11.974;2023-07-09T03:43:44;18.80;81.30
9971;DHT22;5026;51.494;11.974;2023-07-09T03:46:11;18.80;81.50
9971;DHT22;5026;51.494;11.974;2023-07-09T03:48:37;18.80;81.60
9971;DHT22;5026;51.494;11.974;2023-07-09T03:51:05;18.80;81.80
9971;DHT22;5026;51.494;11.974;2023-07-09T03:53:32;18.80;81.80
9971;DHT22;5026;51.494;11.974;2023-07-09T03:58:28;18.90;81.90
9971;DHT22;5026;51.494;11.974;2023-07-09T04:00:55;18.90;81.90
9971;DHT22;5026;51.494;11.974;2023-07-09T04:03:22;18.90;81.90
9971;DHT22;5026;51.494;11.974;2023-07-09T04:05:49;19.00;82.10
9971;DHT22;5026;51.494;11.974;2023-07-09T04:08:16;19.10;81.90
9971;DHT22;5026;51.494;11.974;2023-07-09T04:10:43;19.10;81.90
9971;DHT22;5026;51.494;11.974;2023-07-09T04:15:38;19.00;82.30
9971;DHT22;5026;51.494;11.974;2023-07-09T04:18:05;18.90;82.60
9971;DHT22;5026;51.494;11.974;2023-07-09T04:20:32;18.90;82.80
9971;DHT22;5026;51.494;11.974;2023-07-09T04:23:00;19.00;82.80
9971;DHT22;5026;51.494;11.974;2023-07-09T04:25:27;19.00;82.70
9971;DHT22;5026;51.494;11.974;2023-07-09T04:30:22;19.20;82.80
9971;DHT22;5026;51.494;11.974;2023-07-09T04:32:51;19.10;83.00
9971;DHT22;5026;51.494;11.974;2023-07-09T04:35:18;19.20;83.00
9971;DHT22;5026;51.494;11.974;2023-07-09T04:37:45;19.20;82.80
9971;DHT22;5026;51.494;11.974;2023-07-09T04:40:12;19.30;82.90
9971;DHT22;5026;51.494;11.974;2023-07-09T04:42:41;19.40;82.60
9971;DHT22;5026;51.494;11.974;2023-07-09T04:45:09;19.60;82.50
9971;DHT22;5026;51.494;11.974;2023-07-09T04:47:37;19.80;82.10
9971;DHT22;5026;51.494;11.974;2023-07-09T04:50:08;20.00;82.00
9971;DHT22;5026;51.494;11.974;2023-07-09T04:52:36;20.00;82.00
9971;DHT22;5026;51.494;11.974;2023-07-09T04:55:03;20.00;82.10
9971;DHT22;5026;51.494;11.974;2023-07-09T04:59:58;20.00;82.30
9971;DHT22;5026;51.494;11.974;2023-07-09T05:04:52;20.40;81.80
9971;DHT22;5026;51.494;11.974;2023-07-09T05:07:20;20.50;81.60
9971;DHT22;5026;51.494;11.974;2023-07-09T05:09:47;20.70;81.70
9971;DHT22;5026;51.494;11.974;2023-07-09T05:12:14;20.90;81.70
9971;DHT22;5026;51.494;11.974;2023-07-09T05:14:41;21.10;81.40
9971;DHT22;5026;51.494;11.974;2023-07-09T05:17:08;21.20;80.70
9971;DHT22;5026;51.494;11.974;2023-07-09T05:19:36;21.40;80.40
9971;DHT22;5026;51.494;11.974;2023-07-09T05:22:03;21.70;80.20
9971;DHT22;5026;51.494;11.974;2023-07-09T05:24:32;21.80;80.10
9971;DHT22;5026;51.494;11.974;2023-07-09T05:26:59;22.00;79.50
9971;DHT22;5026;51.494;11.974;2023-07-09T05:29:26;21.90;79.80
9971;DHT22;5026;51.494;11.974;2023-07-09T05:31:53;22.00;79.20
9971;DHT22;5026;51.494;11.974;2023-07-09T05:34:20;21.90;79.50
9971;DHT22;5026;51.494;11.974;2023-07-09T05:39:15;21.80;79.90
9971;DHT22;5026;51.494;11.974;2023-07-09T05:41:44;22.00;80.00
9971;DHT22;5026;51.494;11.974;2023-07-09T05:46:38;23.10;78.80
9971;DHT22;5026;51.494;11.974;2023-07-09T05:49:06;22.90;78.50
9971;DHT22;5026;51.494;11.974;2023-07-09T05:51:33;23.40;78.80
9971;DHT22;5026;51.494;11.974;2023-07-09T05:54:01;25.90;76.60
9971;DHT22;5026;51.494;11.974;2023-07-09T05:56:28;27.90;72.20
9971;DHT22;5026;51.494;11.974;2023-07-09T05:58:56;30.40;68.50
9971;DHT22;5026;51.494;11.974;2023-07-09T06:01:23;32.40;65.00
9971;DHT22;5026;51.494;11.974;2023-07-09T06:03:52;32.70;65.40
9971;DHT22;5026;51.494;11.974;2023-07-09T06:06:21;34.90;61.40
9971;DHT22;5026;51.494;11.974;2023-07-09T06:08:49;35.20;57.60
9971;DHT22;5026;51.494;11.974;2023-07-09T06:13:45;37.30;54.40
9971;DHT22;5026;51.494;11.974;2023-07-09T06:16:13;38.80;52.20
9971;DHT22;5026;51.494;11.974;2023-07-09T06:18:40;39.00;50.50
9971;DHT22;5026;51.494;11.974;2023-07-09T06:21:07;39.10;51.20
9971;DHT22;5026;51.494;11.974;2023-07-09T06:23:37;40.50;49.90
9971;DHT22;5026;51.494;11.974;2023-07-09T06:26:04;39.70;46.40
9971;DHT22;5026;51.494;11.974;2023-07-09T06:28:31;36.50;49.80
9971;DHT22;5026;51.494;11.974;2023-07-09T06:33:28;38.90;48.80
9971;DHT22;5026;51.494;11.974;2023-07-09T06:35:56;38.90;49.30
9971;DHT22;5026;51.494;11.974;2023-07-09T06:38:24;41.40;48.50
9971;DHT22;5026;51.494;11.974;2023-07-09T06:40:51;41.60;46.00
9971;DHT22;5026;51.494;11.974;2023-07-09T06:43:18;40.90;46.30
9971;DHT22;5026;51.494;11.974;2023-07-09T06:45:54;41.30;46.10
9971;DHT22;5026;51.494;11.974;2023-07-09T06:48:22;40.20;46.70
9971;DHT22;5026;51.494;11.974;2023-07-09T06:50:52;42.50;46.40
9971;DHT22;5026;51.494;11.974;2023-07-09T06:53:19;42.40;45.20
9971;DHT22;5026;51.494;11.974;2023-07-09T06:55:47;40.90;45.10
9971;DHT22;5026;51.494;11.974;2023-07-09T06:58:15;41.90;45.90
9971;DHT22;5026;51.494;11.974;2023-07-09T07:00:42;42.00;44.80
9971;DHT22;5026;51.494;11.974;2023-07-09T07:03:10;44.10;44.40
9971;DHT22;5026;51.494;11.974;2023-07-09T07:05:37;41.90;43.80
9971;DHT22;5026;51.494;11.974;2023-07-09T07:08:07;41.40;43.80
9971;DHT22;5026;51.494;11.974;2023-07-09T07:10:34;43.10;45.00
9971;DHT22;5026;51.494;11.974;2023-07-09T07:13:01;44.70;43.30
9971;DHT22;5026;51.494;11.974;2023-07-09T07:15:27;44.60;43.60
9971;DHT22;5026;51.494;11.974;2023-07-09T07:17:54;46.10;42.30
9971;DHT22;5026;51.494;11.974;2023-07-09T07:20:21;47.70;41.60
9971;DHT22;5026;51.494;11.974;2023-07-09T07:22:48;37.70;44.30
9971;DHT22;5026;51.494;11.974;2023-07-09T07:25:17;36.60;46.20
9971;DHT22;5026;51.494;11.974;2023-07-09T07:27:44;37.70;46.60
9971;DHT22;5026;51.494;11.974;2023-07-09T07:30:11;40.80;44.80
9971;DHT22;5026;51.494;11.974;2023-07-09T07:32:43;38.50;45.70
9971;DHT22;5026;51.494;11.974;2023-07-09T07:35:10;41.00;44.60
9971;DHT22;5026;51.494;11.974;2023-07-09T07:37:37;41.90;44.10
9971;DHT22;5026;51.494;11.974;2023-07-09T07:40:04;44.00;43.10
9971;DHT22;5026;51.494;11.974;2023-07-09T07:42:33;44.20;43.40
9971;DHT22;5026;51.494;11.974;2023-07-09T07:45:00;41.30;43.40
9971;DHT22;5026;51.494;11.974;2023-07-09T07:47:27;43.30;44.00
9971;DHT22;5026;51.494;11.974;2023-07-09T07:49:55;43.00;42.80
9971;DHT22;5026;51.494;11.974;2023-07-09T07:52:22;43.10;43.40
9971;DHT22;5026;51.494;11.974;2023-07-09T07:54:50;40.80;41.60
9971;DHT22;5026;51.494;11.974;2023-07-09T07:57:18;38.60;45.30
9971;DHT22;5026;51.494;11.974;2023-07-09T07:59:47;39.50;44.20
9971;DHT22;5026;51.494;11.974;2023-07-09T08:02:14;39.70;44.90
9971;DHT22;5026;51.494;11.974;2023-07-09T08:04:41;41.90;43.70
9971;DHT22;5026;51.494;11.974;2023-07-09T08:07:09;43.30;43.20
9971;DHT22;5026;51.494;11.974;2023-07-09T08:09:36;40.80;42.20
9971;DHT22;5026;51.494;11.974;2023-07-09T08:12:05;41.70;44.10
9971;DHT22;5026;51.494;11.974;2023-07-09T08:14:37;43.60;43.20
9971;DHT22;5026;51.494;11.974;2023-07-09T08:17:07;43.70;42.40
9971;DHT22;5026;51.494;11.974;2023-07-09T08:19:44;44.70;42.30
9971;DHT22;5026;51.494;11.974;2023-07-09T08:22:11;46.00;41.30
9971;DHT22;5026;51.494;11.974;2023-07-09T08:24:38;39.80;42.20
9971;DHT22;5026;51.494;11.974;2023-07-09T08:27:06;39.80;43.00
9971;DHT22;5026;51.494;11.974;2023-07-09T08:29:34;41.70;43.10
9971;DHT22;5026;51.494;11.974;2023-07-09T08:32:01;44.80;40.20
9971;DHT22;5026;51.494;11.974;2023-07-09T08:34:29;44.30;40.20
9971;DHT22;5026;51.494;11.974;2023-07-09T08:36:56;43.70;40.20
9971;DHT22;5026;51.494;11.974;2023-07-09T08:39:23;44.30;40.80
9971;DHT22;5026;51.494;11.974;2023-07-09T08:41:56;43.40;40.80
9971;DHT22;5026;51.494;11.974;2023-07-09T08:44:39;45.10;40.30
9971;DHT22;5026;51.494;11.974;2023-07-09T08:47:15;43.40;40.00
9971;DHT22;5026;51.494;11.974;2023-07-09T08:49:49;43.40;39.60
9971;DHT22;5026;51.494;11.974;2023-07-09T08:52:23;41.50;40.40
9971;DHT22;5026;51.494;11.974;2023-07-09T08:54:53;41.20;41.10
9971;DHT22;5026;51.494;11.974;2023-07-09T08:57:24;43.70;39.70
9971;DHT22;5026;51.494;11.974;2023-07-09T08:59:56;43.20;39.80
9971;DHT22;5026;51.494;11.974;2023-07-09T09:02:31;43.10;40.30
9971;DHT22;5026;51.494;11.974;2023-07-09T09:05:02;43.90;41.50
9971;DHT22;5026;51.494;11.974;2023-07-09T09:07:40;45.30;40.70
9971;DHT22;5026;51.494;11.974;2023-07-09T09:10:13;44.60;39.90
9971;DHT22;5026;51.494;11.974;2023-07-09T09:12:52;45.50;39.30
9971;DHT22;5026;51.494;11.974;2023-07-09T09:15:22;44.70;38.80
9971;DHT22;5026;51.494;11.974;2023-07-09T09:17:52;43.80;39.20
9971;DHT22;5026;51.494;11.974;2023-07-09T09:20:22;43.10;39.40
9971;DHT22;5026;51.494;11.974;2023-07-09T09:23:10;44.30;38.70
9971;DHT22;5026;51.494;11.974;2023-07-09T09:25:41;43.40;38.60
9971;DHT22;5026;51.494;11.974;2023-07-09T09:28:08;43.90;38.00
9971;DHT22;5026;51.494;11.974;2023-07-09T09:30:36;41.10;37.30
9971;DHT22;5026;51.494;11.974;2023-07-09T09:33:07;38.80;39.80
9971;DHT22;5026;51.494;11.974;2023-07-09T09:35:37;39.40;40.30
9971;DHT22;5026;51.494;11.974;2023-07-09T09:38:10;40.30;39.10
9971;DHT22;5026;51.494;11.974;2023-07-09T09:40:38;40.70;38.30
9971;DHT22;5026;51.494;11.974;2023-07-09T09:43:12;40.30;38.20
9971;DHT22;5026;51.494;11.974;2023-07-09T09:45:41;40.30;38.10
9971;DHT22;5026;51.494;11.974;2023-07-09T09:48:14;41.30;38.00
9971;DHT22;5026;51.494;11.974;2023-07-09T09:50:44;41.20;38.00
9971;DHT22;5026;51.494;11.974;2023-07-09T09:53:18;41.00;38.20
9971;DHT22;5026;51.494;11.974;2023-07-09T09:55:45;40.80;38.30
9971;DHT22;5026;51.494;11.974;2023-07-09T09:58:15;41.00;38.10
9971;DHT22;5026;51.494;11.974;2023-07-09T10:00:48;40.20;37.80
9971;DHT22;5026;51.494;11.974;2023-07-09T10:03:15;39.40;37.50
9971;DHT22;5026;51.494;11.974;2023-07-09T10:05:45;39.70;37.80
9971;DHT22;5026;51.494;11.974;2023-07-09T10:08:19;38.30;37.80
9971;DHT22;5026;51.494;11.974;2023-07-09T10:10:51;39.10;38.30
9971;DHT22;5026;51.494;11.974;2023-07-09T10:13:26;37.10;38.50
9971;DHT22;5026;51.494;11.974;2023-07-09T10:16:03;35.10;38.50
9971;DHT22;5026;51.494;11.974;2023-07-09T10:18:42;34.90;39.40
9971;DHT22;5026;51.494;11.974;2023-07-09T10:21:15;33.50;39.90
9971;DHT22;5026;51.494;11.974;2023-07-09T10:23:54;34.20;40.60
9971;DHT22;5026;51.494;11.974;2023-07-09T10:26:28;34.70;39.90
9971;DHT22;5026;51.494;11.974;2023-07-09T10:29:20;35.30;39.80
9971;DHT22;5026;51.494;11.974;2023-07-09T10:31:52;35.60;39.60
9971;DHT22;5026;51.494;11.974;2023-07-09T10:34:34;36.00;39.70
9971;DHT22;5026;51.494;11.974;2023-07-09T10:37:21;35.70;38.90
9971;DHT22;5026;51.494;11.974;2023-07-09T10:39:53;35.60;39.50
9971;DHT22;5026;51.494;11.974;2023-07-09T10:42:26;34.60;39.80
9971;DHT22;5026;51.494;11.974;2023-07-09T10:44:56;34.80;40.10
9971;DHT22;5026;51.494;11.974;2023-07-09T10:47:31;34.60;40.20
9971;DHT22;5026;51.494;11.974;2023-07-09T10:49:59;34.80;40.10
9971;DHT22;5026;51.494;11.974;2023-07-09T10:52:30;35.00;40.00
9971;DHT22;5026;51.494;11.974;2023-07-09T10:55:03;34.70;40.40
9971;DHT22;5026;51.494;11.974;2023-07-09T10:57:38;34.50;40.70
9971;DHT22;5026;51.494;11.974;2023-07-09T11:00:12;34.90;40.80
9971;DHT22;5026;51.494;11.974;2023-07-09T11:02:42;34.90;39.90
9971;DHT22;5026;51.494;11.974;2023-07-09T11:05:10;35.10;39.80
9971;DHT22;5026;51.494;11.974;2023-07-09T11:07:41;35.20;39.80
9971;DHT22;5026;51.494;11.974;2023-07-09T11:10:17;35.10;39.70
9971;DHT22;5026;51.494;11.974;2023-07-09T11:12:54;35.30;39.40
9971;DHT22;5026;51.494;11.974;2023-07-09T11:15:27;35.10;39.70
9971;DHT22;5026;51.494;11.974;2023-07-09T11:17:57;34.40;40.20
9971;DHT22;5026;51.494;11.974;2023-07-09T11:20:31;34.50;40.60
9971;DHT22;5026;51.494;11.974;2023-07-09T11:23:04;34.40;40.30
9971;DHT22;5026;51.494;11.974;2023-07-09T11:25:41;34.40;40.50
9971;DHT22;5026;51.494;11.974;2023-07-09T11:28:08;34.30;40.00
9971;DHT22;5026;51.494;11.974;2023-07-09T11:30:47;34.30;40.40
9971;DHT22;5026;51.494;11.974;2023-07-09T11:33:19;34.50;40.50
9971;DHT22;5026;51.494;11.974;2023-07-09T11:35:48;34.30;40.60
9971;DHT22;5026;51.494;11.974;2023-07-09T11:38:19;34.20;40.90
9971;DHT22;5026;51.494;11.974;2023-07-09T11:40:48;33.80;40.60
9971;DHT22;5026;51.494;11.974;2023-07-09T11:43:31;33.90;40.70
9971;DHT22;5026;51.494;11.974;2023-07-09T11:46:06;33.90;40.80
9971;DHT22;5026;51.494;11.974;2023-07-09T11:48:34;34.10;40.60
9971;DHT22;5026;51.494;11.974;2023-07-09T11:51:08;34.20;40.80
9971;DHT22;5026;51.494;11.974;2023-07-09T11:53:42;34.30;41.40
9971;DHT22;5026;51.494;11.974;2023-07-09T11:56:10;34.20;40.90
9971;DHT22;5026;51.494;11.974;2023-07-09T11:58:48;34.30;40.90
9971;DHT22;5026;51.494;11.974;2023-07-09T12:01:18;34.20;41.40
9971;DHT22;5026;51.494;11.974;2023-07-09T12:03:46;34.40;41.80
9971;DHT22;5026;51.494;11.974;2023-07-09T12:06:18;34.60;41.10
9971;DHT22;5026;51.494;11.974;2023-07-09T12:08:48;34.10;40.90
9971;DHT22;5026;51.494;11.974;2023-07-09T12:11:22;34.30;40.80
9971;DHT22;5026;51.494;11.974;2023-07-09T12:13:49;34.30;41.30
9971;DHT22;5026;51.494;11.974;2023-07-09T12:16:25;34.50;41.70
9971;DHT22;5026;51.494;11.974;2023-07-09T12:18:53;34.60;40.80
9971;DHT22;5026;51.494;11.974;2023-07-09T12:21:20;34.60;41.00
9971;DHT22;5026;51.494;11.974;2023-07-09T12:23:49;34.50;40.50
9971;DHT22;5026;51.494;11.974;2023-07-09T12:26:18;34.20;40.70
9971;DHT22;5026;51.494;11.974;2023-07-09T12:28:50;34.30;41.50
9971;DHT22;5026;51.494;11.974;2023-07-09T12:31:18;34.50;40.60
9971;DHT22;5026;51.494;11.974;2023-07-09T12:33:49;34.40;40.70
9971;DHT22;5026;51.494;11.974;2023-07-09T12:36:17;34.40;40.80
9971;DHT22;5026;51.494;11.974;2023-07-09T12:38:46;34.50;40.60
9971;DHT22;5026;51.494;11.974;2023-07-09T12:41:20;34.60;41.30
9971;DHT22;5026;51.494;11.974;2023-07-09T12:43:49;34.70;40.20
9971;DHT22;5026;51.494;11.974;2023-07-09T12:46:17;34.80;40.60
9971;DHT22;5026;51.494;11.974;2023-07-09T12:48:45;35.00;40.40
9971;DHT22;5026;51.494;11.974;2023-07-09T12:51:16;35.00;40.20
9971;DHT22;5026;51.494;11.974;2023-07-09T12:56:16;35.20;40.00
9971;DHT22;5026;51.494;11.974;2023-07-09T12:58:45;35.10;40.20
9971;DHT22;5026;51.494;11.974;2023-07-09T13:01:15;35.10;40.60
9971;DHT22;5026;51.494;11.974;2023-07-09T13:03:53;35.20;40.20
9971;DHT22;5026;51.494;11.974;2023-07-09T13:06:28;35.20;40.40
9971;DHT22;5026;51.494;11.974;2023-07-09T13:08:57;35.30;40.90
9971;DHT22;5026;51.494;11.974;2023-07-09T13:11:25;35.10;40.20
9971;DHT22;5026;51.494;11.974;2023-07-09T13:14:02;35.00;39.80
9971;DHT22;5026;51.494;11.974;2023-07-09T13:16:30;34.80;40.00
9971;DHT22;5026;51.494;11.974;2023-07-09T13:18:57;34.80;40.90
9971;DHT22;5026;51.494;11.974;2023-07-09T13:21:24;34.80;40.60
9971;DHT22;5026;51.494;11.974;2023-07-09T13:23:53;34.80;40.30
9971;DHT22;5026;51.494;11.974;2023-07-09T13:26:20;34.80;40.80
9971;DHT22;5026;51.494;11.974;2023-07-09T13:28:47;34.90;40.80
9971;DHT22;5026;51.494;11.974;2023-07-09T13:31:19;35.00;41.00
9971;DHT22;5026;51.494;11.974;2023-07-09T13:33:52;35.10;40.40
9971;DHT22;5026;51.494;11.974;2023-07-09T13:36:21;35.00;40.20
9971;DHT22;5026;51.494;11.974;2023-07-09T13:38:48;35.00;40.40
9971;DHT22;5026;51.494;11.974;2023-07-09T13:41:16;34.90;40.90
9971;DHT22;5026;51.494;11.974;2023-07-09T13:43:46;35.00;40.70
9971;DHT22;5026;51.494;11.974;2023-07-09T13:46:13;35.00;40.00
9971;DHT22;5026;51.494;11.974;2023-07-09T13:48:43;34.80;40.40
9971;DHT22;5026;51.494;11.974;2023-07-09T13:51:15;34.60;40.00
9971;DHT22;5026;51.494;11.974;2023-07-09T13:56:10;34.80;40.50
9971;DHT22;5026;51.494;11.974;2023-07-09T13:58:37;34.90;40.70
9971;DHT22;5026;51.494;11.974;2023-07-09T14:01:10;35.00;40.50
9971;DHT22;5026;51.494;11.974;2023-07-09T14:03:37;35.10;41.00
9971;DHT22;5026;51.494;11.974;2023-07-09T14:06:09;35.20;40.70
9971;DHT22;5026;51.494;11.974;2023-07-09T14:08:37;35.30;40.80
9971;DHT22;5026;51.494;11.974;2023-07-09T14:11:09;35.30;40.60
9971;DHT22;5026;51.494;11.974;2023-07-09T14:13:37;35.40;40.10
9971;DHT22;5026;51.494;11.974;2023-07-09T14:16:04;35.30;39.70
9971;DHT22;5026;51.494;11.974;2023-07-09T14:23:27;35.20;39.50
9971;DHT22;5026;51.494;11.974;2023-07-09T14:28:22;35.30;40.20
9971;DHT22;5026;51.494;11.974;2023-07-09T14:30:50;35.20;39.80
9971;DHT22;5026;51.494;11.974;2023-07-09T14:33:20;35.10;40.10
9971;DHT22;5026;51.494;11.974;2023-07-09T14:35:48;35.10;40.50
9971;DHT22;5026;51.494;11.974;2023-07-09T14:38:17;35.10;40.60
9971;DHT22;5026;51.494;11.974;2023-07-09T14:40:47;35.10;40.40
9971;DHT22;5026;51.494;11.974;2023-07-09T14:43:15;35.00;41.00
9971;DHT22;5026;51.494;11.974;2023-07-09T14:48:10;35.00;40.10
9971;DHT22;5026;51.494;11.974;2023-07-09T14:50:38;35.00;40.00
9971;DHT22;5026;51.494;11.974;2023-07-09T14:53:12;34.90;40.00
9971;DHT22;5026;51.494;11.974;2023-07-09T14:55:39;34.70;40.10
9971;DHT22;5026;51.494;11.974;2023-07-09T14:58:13;34.60;40.40
9971;DHT22;5026;51.494;11.974;2023-07-09T15:00:41;34.60;40.40
9971;DHT22;5026;51.494;11.974;2023-07-09T15:03:10;34.60;40.50
9971;DHT22;5026;51.494;11.974;2023-07-09T15:05:37;34.50;40.30
9971;DHT22;5026;51.494;11.974;2023-07-09T15:08:12;34.50;40.70
9971;DHT22;5026;51.494;11.974;2023-07-09T15:10:39;34.60;40.90
9971;DHT22;5026;51.494;11.974;2023-07-09T15:13:16;34.50;40.10
9971;DHT22;5026;51.494;11.974;2023-07-09T15:15:43;34.50;40.60
9971;DHT22;5026;51.494;11.974;2023-07-09T15:18:12;34.50;40.80
9971;DHT22;5026;51.494;11.974;2023-07-09T15:20:41;34.50;40.90
9971;DHT22;5026;51.494;11.974;2023-07-09T15:23:09;34.60;40.80
9971;DHT22;5026;51.494;11.974;2023-07-09T15:25:37;34.70;40.80
9971;DHT22;5026;51.494;11.974;2023-07-09T15:28:04;34.70;40.50
9971;DHT22;5026;51.494;11.974;2023-07-09T15:30:33;34.60;40.00
9971;DHT22;5026;51.494;11.974;2023-07-09T15:33:02;34.20;40.30
9971;DHT22;5026;51.494;11.974;2023-07-09T15:35:33;34.40;40.90
9971;DHT22;5026;51.494;11.974;2023-07-09T15:38:02;34.40;41.10
9971;DHT22;5026;51.494;11.974;2023-07-09T15:40:30;34.50;41.70
9971;DHT22;5026;51.494;11.974;2023-07-09T15:43:03;34.50;40.80
9971;DHT22;5026;51.494;11.974;2023-07-09T15:47:59;34.30;40.40
9971;DHT22;5026;51.494;11.974;2023-07-09T15:50:27;34.30;41.30
9971;DHT22;5026;51.494;11.974;2023-07-09T15:52:54;34.20;41.30
9971;DHT22;5026;51.494;11.974;2023-07-09T15:55:24;34.30;41.40
9971;DHT22;5026;51.494;11.974;2023-07-09T15:57:53;34.30;41.20
9971;DHT22;5026;51.494;11.974;2023-07-09T16:00:23;34.10;40.30
9971;DHT22;5026;51.494;11.974;2023-07-09T16:02:51;33.90;40.60
9971;DHT22;5026;51.494;11.974;2023-07-09T16:05:22;33.90;41.10
9971;DHT22;5026;51.494;11.974;2023-07-09T16:07:51;33.90;41.50
9971;DHT22;5026;51.494;11.974;2023-07-09T16:10:19;33.90;40.90
9971;DHT22;5026;51.494;11.974;2023-07-09T16:12:47;33.90;40.70
9971;DHT22;5026;51.494;11.974;2023-07-09T16:15:16;33.90;40.70
9971;DHT22;5026;51.494;11.974;2023-07-09T16:17:45;33.70;41.30
9971;DHT22;5026;51.494;11.974;2023-07-09T16:20:13;33.80;41.30
9971;DHT22;5026;51.494;11.974;2023-07-09T16:22:44;33.90;40.80
9971;DHT22;5026;51.494;11.974;2023-07-09T16:25:14;33.90;41.00
9971;DHT22;5026;51.494;11.974;2023-07-09T16:27:43;33.60;41.30
9971;DHT22;5026;51.494;11.974;2023-07-09T16:30:15;33.60;41.20
9971;DHT22;5026;51.494;11.974;2023-07-09T16:32:42;33.60;41.10
9971;DHT22;5026;51.494;11.974;2023-07-09T16:35:11;33.60;41.00
9971;DHT22;5026;51.494;11.974;2023-07-09T16:37:39;33.50;40.80
9971;DHT22;5026;51.494;11.974;2023-07-09T16:40:14;33.50;41.00
9971;DHT22;5026;51.494;11.974;2023-07-09T16:45:10;33.50;41.50
9971;DHT22;5026;51.494;11.974;2023-07-09T16:47:37;33.40;41.50
9971;DHT22;5026;51.494;11.974;2023-07-09T16:50:05;33.40;41.70
9971;DHT22;5026;51.494;11.974;2023-07-09T16:52:32;33.40;42.00
9971;DHT22;5026;51.494;11.974;2023-07-09T16:54:59;33.30;41.70
9971;DHT22;5026;51.494;11.974;2023-07-09T16:57:29;33.10;41.80
9971;DHT22;5026;51.494;11.974;2023-07-09T17:00:18;33.20;41.60
9971;DHT22;5026;51.494;11.974;2023-07-09T17:02:46;33.20;41.50